createdAt,value
2022-11-05T00:02:06.575Z,98381.82
2022-11-05T00:04:55.170Z,98392.37
2022-11-05T00:07:49.432Z,98397.05
2022-11-05T00:10:22.920Z,98399.57
2022-11-05T00:13:12.481Z,98404.17
2022-11-05T00:16:01.807Z,98400.30
2022-11-05T00:18:32.569Z,98405.33
2022-11-05T00:21:03.247Z,98411.98
2022-11-05T00:23:51.588Z,98414.70
2022-11-05T00:26:22.246Z,98415.98
2022-11-05T00:28:52.928Z,98416.82
2022-11-05T00:31:23.552Z,98420.31
2022-11-05T00:33:54.206Z,98430.27
2022-11-05T00:36:24.953Z,98430.66
2022-11-05T00:38:55.733Z,98433.80
2022-11-05T00:41:26.599Z,98433.45
2022-11-05T00:44:14.887Z,98439.20
2022-11-05T00:46:45.643Z,98445.80
2022-11-05T00:49:31.664Z,98444.33
2022-11-05T00:52:16.162Z,98451.77
2022-11-05T00:54:46.901Z,98456.15
2022-11-05T00:57:17.637Z,98460.20
2022-11-05T00:59:48.280Z,98467.34
2022-11-05T01:02:19.015Z,98465.91
2022-11-05T01:04:49.749Z,98473.23
2022-11-05T01:07:20.392Z,98470.38
2022-11-05T01:09:50.993Z,98476.13
2022-11-05T01:12:21.657Z,98473.45
2022-11-05T01:14:52.280Z,98475.52
2022-11-05T01:17:22.892Z,98480.05
2022-11-05T01:19:53.695Z,98479.16
2022-11-05T01:22:24.455Z,98478.34
2022-11-05T01:24:55.145Z,98472.95
2022-11-05T01:27:25.776Z,98470.15
2022-11-05T01:29:56.615Z,98468.51
2022-11-05T01:32:27.557Z,98469.73
2022-11-05T01:34:58.162Z,98476.43
2022-11-05T01:37:29.370Z,98484.40
2022-11-05T01:40:00.107Z,98492.94
2022-11-05T01:42:33.243Z,98492.95
2022-11-05T01:45:12.482Z,98497.50
2022-11-05T01:47:54.494Z,98506.71
2022-11-05T01:50:31.870Z,98507.23
2022-11-05T01:53:07.149Z,98503.66
2022-11-05T01:55:42.075Z,98503.88
2022-11-05T01:58:19.253Z,98503.18
2022-11-05T02:00:50.395Z,98503.58
2022-11-05T02:03:21.743Z,98506.54
2022-11-05T02:05:54.306Z,98512.56
2022-11-05T02:08:35.810Z,98517.92
2022-11-05T02:11:07.071Z,98520.70
2022-11-05T02:13:38.411Z,98519.30
2022-11-05T02:16:19.637Z,98524.50
2022-11-05T02:19:00.364Z,98523.14
2022-11-05T02:22:12.906Z,98525.55
2022-11-05T02:25:11.370Z,98525.08
2022-11-05T02:28:05.176Z,98525.69
2022-11-05T02:30:46.874Z,98526.60
2022-11-05T02:33:30.446Z,98520.34
2022-11-05T02:36:17.076Z,98520.70
2022-11-05T02:38:58.373Z,98522.13
2022-11-05T02:41:43.830Z,98530.42
2022-11-05T02:44:25.279Z,98533.76
2022-11-05T02:47:06.924Z,98541.53
2022-11-05T02:49:49.344Z,98546.05
2022-11-05T02:52:28.592Z,98545.75
2022-11-05T02:55:07.248Z,98550.70
2022-11-05T02:57:39.038Z,98553.58
2022-11-05T03:00:46.035Z,98561.83
2022-11-05T03:03:23.973Z,98568.58
2022-11-05T03:06:27.384Z,98573.67
2022-11-05T03:09:22.065Z,98580.86
2022-11-05T03:12:03.446Z,98580.89
2022-11-05T03:14:41.847Z,98583.45
2022-11-05T03:17:22.311Z,98588.86
2022-11-05T03:20:02.956Z,98596.40
2022-11-05T03:22:39.843Z,98596.16
2022-11-05T03:25:16.137Z,98604.98
2022-11-05T03:27:51.296Z,98606.88
2022-11-05T03:30:24.908Z,98606.05
2022-11-05T03:33:00.690Z,98606.95
2022-11-05T03:35:37.377Z,98602.73
2022-11-05T03:38:13.641Z,98600.45
2022-11-05T03:40:46.812Z,98602.52
2022-11-05T03:43:18.816Z,98601.73
2022-11-05T03:45:54.999Z,98604.13
2022-11-05T03:48:28.495Z,98603.81
2022-11-05T03:51:06.269Z,98602.55
2022-11-05T03:53:41.995Z,98604.92
2022-11-05T03:56:19.521Z,98612.97
2022-11-05T03:58:56.041Z,98618.34
2022-11-05T04:01:30.929Z,98617.89
2022-11-05T04:04:01.866Z,98617.83
2022-11-05T04:06:50.026Z,98621.69
2022-11-05T04:09:38.750Z,98621.47
2022-11-05T04:12:29.821Z,98625.52
2022-11-05T04:15:00.407Z,98628.75
2022-11-05T04:17:31.125Z,98631.91
2022-11-05T04:20:19.357Z,98633.91
2022-11-05T04:23:08.135Z,98634.88
2022-11-05T04:25:39.018Z,98632.98
2022-11-05T04:28:09.685Z,98639.08
2022-11-05T04:30:40.420Z,98647.46
2022-11-05T04:33:14.195Z,98645.91
2022-11-05T04:35:46.975Z,98642.80
2022-11-05T04:38:19.060Z,98647.76
2022-11-05T04:40:50.128Z,98652.08
2022-11-05T04:43:22.340Z,98652.08
2022-11-05T04:45:53.342Z,98645.70
2022-11-05T04:48:24.080Z,98654.97
2022-11-05T04:50:54.704Z,98657.80
2022-11-05T04:53:25.358Z,98657.30
2022-11-05T04:55:56.191Z,98659.67
2022-11-05T04:58:26.934Z,98657.58
2022-11-05T05:00:57.622Z,98660.54
2022-11-05T05:03:28.403Z,98668.45
2022-11-05T05:06:03.911Z,98669.06
2022-11-05T05:08:35.412Z,98669.52
2022-11-05T05:11:08.964Z,98672.88
2022-11-05T05:13:40.221Z,98669.02
2022-11-05T05:16:17.546Z,98669.33
2022-11-05T05:18:48.513Z,98675.11
2022-11-05T05:21:38.796Z,98676.33
2022-11-05T05:24:12.222Z,98675.23
2022-11-05T05:26:44.743Z,98685.66
2022-11-05T05:29:16.156Z,98695.94
2022-11-05T05:31:47.248Z,98700.61
2022-11-05T05:34:18.117Z,98698.13
2022-11-05T05:36:48.706Z,98700.55
2022-11-05T05:39:19.339Z,98711.05
2022-11-05T05:41:49.979Z,98709.39
2022-11-05T05:44:20.839Z,98716.44
2022-11-05T05:46:51.674Z,98722.25
2022-11-05T05:49:22.314Z,98721.56
2022-11-05T05:51:53.149Z,98726.01
2022-11-05T05:54:29.125Z,98727.80
2022-11-05T05:57:02.510Z,98730.99
2022-11-05T05:59:33.124Z,98736.38
2022-11-05T06:02:03.910Z,98740.27
2022-11-05T06:04:34.720Z,98748.67
2022-11-05T06:07:05.554Z,98751.36
2022-11-05T06:09:36.295Z,98754.34
2022-11-05T06:12:07.904Z,98760.23
2022-11-05T06:14:38.588Z,98759.70
2022-11-05T06:17:10.792Z,98759.73
2022-11-05T06:19:41.497Z,98763.76
2022-11-05T06:22:12.142Z,98764.73
2022-11-05T06:24:43.219Z,98763.92
2022-11-05T06:27:13.814Z,98768.50
2022-11-05T06:29:44.480Z,98766.31
2022-11-05T06:32:15.115Z,98771.07
2022-11-05T06:34:45.838Z,98776.67
2022-11-05T06:37:16.444Z,98781.96
2022-11-05T06:39:47.421Z,98788.17
2022-11-05T06:42:19.418Z,98795.35
2022-11-05T06:44:50.298Z,98798.61
2022-11-05T06:47:21.287Z,98808.37
2022-11-05T06:49:51.996Z,98810.50
2022-11-05T06:52:23.591Z,98807.38
2022-11-05T06:54:54.369Z,98812.45
2022-11-05T06:57:25.121Z,98825.21
2022-11-05T07:00:00.624Z,98831.79
2022-11-05T07:02:33.115Z,98838.52
2022-11-05T07:05:03.784Z,98843.65
2022-11-05T07:07:34.413Z,98844.34
2022-11-05T07:10:05.862Z,98845.64
2022-11-05T07:12:36.710Z,98850.82
2022-11-05T07:15:09.457Z,98853.05
2022-11-05T07:17:41.492Z,98860.58
2022-11-05T07:20:13.515Z,98863.27
2022-11-05T07:22:44.396Z,98865.30
2022-11-05T07:25:15.110Z,98865.83
2022-11-05T07:27:45.846Z,98867.29
2022-11-05T07:30:16.589Z,98868.15
2022-11-05T07:32:47.322Z,98866.63
2022-11-05T07:35:18.017Z,98870.23
2022-11-05T07:37:50.037Z,98877.15
2022-11-05T07:40:22.204Z,98880.64
2022-11-05T07:42:54.992Z,98891.55
2022-11-05T07:45:26.867Z,98892.11
2022-11-05T07:47:59.088Z,98895.10
2022-11-05T07:50:32.875Z,98903.79
2022-11-05T07:53:02.778Z,98908.89
2022-11-05T07:55:33.936Z,98905.19
2022-11-05T07:58:04.649Z,98911.36
2022-11-05T08:00:35.582Z,98915.20
2022-11-05T08:03:08.996Z,98918.33
2022-11-05T08:05:43.387Z,98921.52
2022-11-05T08:08:15.325Z,98922.71
2022-11-05T08:10:46.095Z,98925.30
2022-11-05T08:13:17.773Z,98925.04
2022-11-05T08:15:48.442Z,98922.51
2022-11-05T08:18:20.543Z,98928.48
2022-11-05T08:20:51.358Z,98926.66
2022-11-05T08:23:22.152Z,98927.52
2022-11-05T08:25:53.101Z,98928.65
2022-11-05T08:28:24.735Z,98927.92
2022-11-05T08:30:57.358Z,98930.59
2022-11-05T08:33:31.300Z,98932.00
2022-11-05T08:36:06.637Z,98936.94
2022-11-05T08:38:37.500Z,98937.30
2022-11-05T08:41:08.539Z,98937.94
2022-11-05T08:43:39.838Z,98947.11
2022-11-05T08:46:10.648Z,98952.83
2022-11-05T08:48:41.270Z,98954.56
2022-11-05T08:51:11.942Z,98957.55
2022-11-05T08:53:42.570Z,98955.72
2022-11-05T08:56:13.510Z,98963.23
2022-11-05T08:58:44.211Z,98965.02
2022-11-05T09:01:15.013Z,98967.70
2022-11-05T09:03:45.878Z,98967.48
2022-11-05T09:06:16.649Z,98972.48
2022-11-05T09:08:47.707Z,98975.47
2022-11-05T09:11:18.640Z,98980.69
2022-11-05T09:13:49.375Z,98983.45
2022-11-05T09:16:23.574Z,98987.67
2022-11-05T09:18:56.082Z,98985.25
2022-11-05T09:21:26.820Z,98990.98
2022-11-05T09:23:57.531Z,98996.27
2022-11-05T09:26:28.386Z,98999.89
2022-11-05T09:28:59.121Z,99001.25
2022-11-05T09:31:30.103Z,98998.57
2022-11-05T09:34:01.008Z,99002.77
2022-11-05T09:36:31.819Z,99004.21
2022-11-05T09:39:02.833Z,99004.91
2022-11-05T09:41:37.332Z,99010.55
2022-11-05T09:44:13.180Z,99014.21
2022-11-05T09:46:47.325Z,99013.36
2022-11-05T09:49:28.032Z,99016.29
2022-11-05T09:52:01.541Z,99018.52
2022-11-05T09:54:33.734Z,99018.73
2022-11-05T09:57:07.935Z,99019.34
2022-11-05T09:59:44.849Z,99015.88
2022-11-05T10:02:19.550Z,99013.60
2022-11-05T10:04:54.061Z,99011.65
2022-11-05T10:07:27.616Z,99008.98
2022-11-05T10:10:01.828Z,99009.02
2022-11-05T10:12:37.367Z,99016.05
2022-11-05T10:15:16.833Z,99020.95
2022-11-05T10:17:52.513Z,99022.20
2022-11-05T10:20:32.503Z,99021.38
2022-11-05T10:23:11.011Z,99021.24
2022-11-05T10:25:46.599Z,99024.02
2022-11-05T10:28:21.939Z,99025.06
2022-11-05T10:30:57.818Z,99028.29
2022-11-05T10:33:35.021Z,99032.14
2022-11-05T10:36:09.106Z,99038.25
2022-11-05T10:38:40.008Z,99040.11
2022-11-05T10:41:29.156Z,99042.81
2022-11-05T10:44:13.552Z,99044.89
2022-11-05T10:46:58.746Z,99050.62
2022-11-05T10:49:43.069Z,99051.81
2022-11-05T10:52:23.391Z,99044.30
2022-11-05T10:54:57.164Z,99044.11
2022-11-05T10:57:30.666Z,99040.91
2022-11-05T11:00:23.409Z,99042.34
2022-11-05T11:02:57.516Z,99042.90
2022-11-05T11:05:32.484Z,99041.23
2022-11-05T11:08:19.504Z,99046.76
2022-11-05T11:10:54.533Z,99047.84
2022-11-05T11:13:28.382Z,99049.14
2022-11-05T11:16:17.098Z,99050.02
2022-11-05T11:18:48.016Z,99054.38
2022-11-05T11:21:23.161Z,99055.63
2022-11-05T11:23:59.281Z,99060.45
2022-11-05T11:26:33.745Z,99068.98
2022-11-05T11:29:13.762Z,99075.67
2022-11-05T11:31:44.889Z,99080.28
2022-11-05T11:34:24.374Z,99080.52
2022-11-05T11:37:02.959Z,99080.16
2022-11-05T11:39:34.825Z,99083.86
2022-11-05T11:42:13.031Z,99083.98
2022-11-05T11:44:47.658Z,99087.48
2022-11-05T11:47:20.649Z,99086.66
2022-11-05T11:49:53.944Z,99085.16
2022-11-05T11:52:32.151Z,99080.71
2022-11-05T11:55:21.720Z,99085.33
2022-11-05T11:57:54.709Z,99089.70
2022-11-05T12:00:27.203Z,99089.63
2022-11-05T12:03:19.507Z,99086.34
2022-11-05T12:06:01.114Z,99086.41
2022-11-05T12:08:52.798Z,99089.30
2022-11-05T12:11:34.453Z,99093.86
2022-11-05T12:14:20.068Z,99091.89
2022-11-05T12:17:05.152Z,99093.93
2022-11-05T12:19:52.771Z,99093.38
2022-11-05T12:22:33.091Z,99091.16
2022-11-05T12:25:23.868Z,99092.39
2022-11-05T12:28:11.892Z,99090.17
2022-11-05T12:30:56.380Z,99091.97
2022-11-05T12:33:43.121Z,99092.04
2022-11-05T12:36:24.211Z,99089.75
2022-11-05T12:39:29.735Z,99090.80
2022-11-05T12:42:06.630Z,99084.51
2022-11-05T12:44:51.862Z,99089.27
2022-11-05T12:47:39.689Z,99095.88
2022-11-05T12:50:25.852Z,99098.27
2022-11-05T12:53:27.963Z,99100.90
2022-11-05T12:56:04.755Z,99095.78
2022-11-05T12:58:41.182Z,99093.54
2022-11-05T13:01:16.159Z,99097.36
2022-11-05T13:03:51.044Z,99095.77
2022-11-05T13:06:26.075Z,99096.61
2022-11-05T13:09:03.535Z,99101.77
2022-11-05T13:11:41.063Z,99102.33
2022-11-05T13:14:15.036Z,99102.23
2022-11-05T13:16:48.951Z,99106.80
2022-11-05T13:19:26.470Z,99108.60
2022-11-05T13:22:01.584Z,99110.80
2022-11-05T13:24:37.567Z,99108.45
2022-11-05T13:27:22.193Z,99105.73
2022-11-05T13:29:57.752Z,99110.03
2022-11-05T13:32:35.882Z,99116.10
2022-11-05T13:35:15.313Z,99120.67
2022-11-05T13:38:07.757Z,99122.04
2022-11-05T13:40:48.775Z,99125.13
2022-11-05T13:43:35.320Z,99129.27
2022-11-05T13:46:19.562Z,99133.98
2022-11-05T13:49:32.647Z,99139.56
2022-11-05T13:52:37.794Z,99140.02
2022-11-05T13:55:28.765Z,99141.29
2022-11-05T13:58:14.917Z,99144.48
2022-11-05T14:00:58.329Z,99141.50
2022-11-05T14:03:29.841Z,99144.45
2022-11-05T14:06:05.765Z,99147.61
2022-11-05T14:08:42.339Z,99151.80
2022-11-05T14:11:24.400Z,99151.70
2022-11-05T14:13:58.707Z,99150.10
2022-11-05T14:16:41.609Z,99151.07
2022-11-05T14:19:34.457Z,99150.95
2022-11-05T14:22:37.648Z,99155.34
2022-11-05T14:25:38.880Z,99160.86
2022-11-05T14:28:39.805Z,99167.12
2022-11-05T14:31:47.234Z,99164.86
2022-11-05T14:34:42.039Z,99172.01
2022-11-05T14:37:30.324Z,99176.13
2022-11-05T14:40:23.863Z,99180.95
2022-11-05T14:42:57.459Z,99183.69
2022-11-05T14:45:32.376Z,99186.91
2022-11-05T14:48:05.998Z,99189.91
2022-11-05T14:50:40.735Z,99192.14
2022-11-05T14:53:29.677Z,99197.26
2022-11-05T14:56:06.569Z,99191.70
2022-11-05T14:58:39.191Z,99195.06
2022-11-05T15:01:31.172Z,99195.36
2022-11-05T15:04:18.565Z,99200.71
2022-11-05T15:07:28.752Z,99205.54
2022-11-05T15:10:09.842Z,99206.65
2022-11-05T15:12:45.878Z,99205.82
2022-11-05T15:15:27.848Z,99211.59
2022-11-05T15:18:13.814Z,99212.39
2022-11-05T15:20:48.475Z,99219.27
2022-11-05T15:23:22.739Z,99224.23
2022-11-05T15:26:00.778Z,99231.70
2022-11-05T15:28:36.931Z,99231.64
2022-11-05T15:31:22.224Z,99231.15
2022-11-05T15:33:53.158Z,99231.39
2022-11-05T15:36:27.346Z,99230.38
2022-11-05T15:39:27.889Z,99236.46
2022-11-05T15:41:50.181Z,99235.64
2022-11-05T15:44:33.078Z,99242.52
2022-11-05T15:47:27.220Z,99242.06
2022-11-05T15:50:01.276Z,99234.02
2022-11-05T15:52:42.288Z,99233.36
2022-11-05T15:55:24.738Z,99237.46
2022-11-05T15:58:00.433Z,99234.11
2022-11-05T16:00:33.157Z,99239.14
2022-11-05T16:03:07.507Z,99241.58
2022-11-05T16:05:46.402Z,99244.05
2022-11-05T16:08:21.670Z,99247.25
2022-11-05T16:10:55.112Z,99251.28
2022-11-05T16:13:34.267Z,99255.40
2022-11-05T16:16:07.484Z,99257.24
2022-11-05T16:18:39.179Z,99259.80
2022-11-05T16:21:12.537Z,99261.45
2022-11-05T16:23:46.488Z,99271.14
2022-11-05T16:29:29.823Z,99280.34
2022-11-05T16:32:03.254Z,99287.64
2022-11-05T16:34:38.104Z,99284.52
2022-11-05T16:37:13.494Z,99289.79
2022-11-05T16:39:44.601Z,99295.65
2022-11-05T16:42:42.636Z,99295.49
2022-11-05T16:45:14.959Z,99293.76
2022-11-05T16:47:46.825Z,99293.43
2022-11-05T16:50:24.408Z,99297.00
2022-11-05T16:52:55.781Z,99296.41
2022-11-05T16:55:26.787Z,99296.95
2022-11-05T16:57:58.580Z,99297.52
2022-11-05T17:00:29.644Z,99300.40
2022-11-05T17:03:00.359Z,99300.33
2022-11-05T17:05:32.520Z,99301.61
2022-11-05T17:08:03.580Z,99304.05
2022-11-05T17:10:34.452Z,99306.18
2022-11-05T17:13:05.676Z,99307.00
2022-11-05T17:15:36.860Z,99313.39
2022-11-05T17:18:09.927Z,99317.13
2022-11-05T17:20:45.875Z,99314.45
2022-11-05T17:23:18.299Z,99313.23
2022-11-05T17:25:51.069Z,99316.97
2022-11-05T17:28:22.644Z,99319.09
2022-11-05T17:30:54.248Z,99321.90
2022-11-05T17:33:26.780Z,99319.47
2022-11-05T17:35:58.285Z,99317.43
2022-11-05T17:38:30.095Z,99319.33
2022-11-05T17:41:01.650Z,99325.23
2022-11-05T17:43:32.443Z,99323.36
2022-11-05T17:46:07.723Z,99328.99
2022-11-05T17:48:39.384Z,99329.77
2022-11-05T17:51:15.107Z,99331.42
2022-11-05T17:53:47.468Z,99331.83
2022-11-05T17:56:32.118Z,99336.73
2022-11-05T17:59:05.353Z,99338.90
2022-11-05T18:01:41.447Z,99339.70
2022-11-05T18:04:12.604Z,99344.48
2022-11-05T18:06:43.961Z,99349.60
2022-11-05T18:09:15.084Z,99353.51
2022-11-05T18:11:46.003Z,99355.61
2022-11-05T18:14:21.292Z,99362.08
2022-11-05T18:17:00.101Z,99365.70
2022-11-05T18:19:31.248Z,99367.45
2022-11-05T18:22:02.218Z,99375.87
2022-11-05T18:24:33.314Z,99378.67
2022-11-05T18:27:04.449Z,99383.95
2022-11-05T18:29:35.497Z,99378.34
2022-11-05T18:32:07.718Z,99380.44
2022-11-05T18:34:38.810Z,99391.67
2022-11-05T18:37:09.955Z,99395.23
2022-11-05T18:39:41.112Z,99398.60
2022-11-05T18:42:12.151Z,99403.34
2022-11-05T18:44:42.991Z,99405.20
2022-11-05T18:47:14.364Z,99406.75
2022-11-05T18:49:45.312Z,99412.65
2022-11-05T18:52:16.356Z,99414.58
2022-11-05T18:54:47.274Z,99409.89
2022-11-05T18:57:18.234Z,99411.62
2022-11-05T18:59:49.159Z,99421.91
2022-11-05T19:02:20.367Z,99421.27
2022-11-05T19:05:14.384Z,99430.21
2022-11-05T19:07:42.875Z,99432.52
2022-11-05T19:10:14.035Z,99425.78
2022-11-05T19:12:45.172Z,99428.02
2022-11-05T19:15:15.990Z,99431.61
2022-11-05T19:17:47.046Z,99435.33
2022-11-05T19:20:18.200Z,99434.25
2022-11-05T19:22:49.345Z,99434.41
2022-11-05T19:25:20.666Z,99434.91
2022-11-05T19:27:53.684Z,99438.91
2022-11-05T19:30:24.772Z,99441.34
2022-11-05T19:32:55.789Z,99441.30
2022-11-05T19:35:26.793Z,99444.48
2022-11-05T19:37:57.958Z,99443.95
2022-11-05T19:40:28.803Z,99448.59
2022-11-05T19:43:00.034Z,99445.86
2022-11-05T19:45:44.127Z,99452.95
2022-11-05T19:48:19.457Z,99455.36
2022-11-05T19:50:50.989Z,99456.29
2022-11-05T19:53:22.104Z,99452.90
2022-11-05T19:55:53.186Z,99452.43
2022-11-05T19:58:24.367Z,99452.31
2022-11-05T20:00:57.935Z,99449.32
2022-11-05T20:03:29.121Z,99452.29
2022-11-05T20:06:04.829Z,99457.32
2022-11-05T20:08:47.757Z,99454.66
2022-11-05T20:11:27.847Z,99461.19
2022-11-05T20:13:59.109Z,99466.64
2022-11-05T20:16:32.364Z,99477.77
2022-11-05T20:19:07.081Z,99481.78
2022-11-05T20:21:38.204Z,99481.05
2022-11-05T20:24:11.704Z,99481.55
2022-11-05T20:26:42.765Z,99480.32
2022-11-05T20:29:14.043Z,99481.22
2022-11-05T20:31:44.861Z,99479.27
2022-11-05T20:34:15.905Z,99486.06
2022-11-05T20:36:46.948Z,99484.50
2022-11-05T20:39:18.710Z,99486.20
2022-11-05T20:41:49.838Z,99491.40
2022-11-05T20:44:20.701Z,99494.79
2022-11-05T20:46:51.642Z,99496.91
2022-11-05T20:49:25.358Z,99495.84
2022-11-05T20:51:56.684Z,99493.48
2022-11-05T20:54:27.749Z,99496.64
2022-11-05T20:56:58.484Z,99495.30
2022-11-05T20:59:29.558Z,99503.31
2022-11-05T21:02:00.470Z,99500.91
2022-11-05T21:04:31.726Z,99501.94
2022-11-05T21:07:02.456Z,99505.20
2022-11-05T21:09:33.396Z,99509.05
2022-11-05T21:12:13.471Z,99515.14
2022-11-05T21:14:45.318Z,99515.87
2022-11-05T21:17:16.169Z,99515.50
2022-11-05T21:19:47.460Z,99516.20
2022-11-05T21:22:18.241Z,99514.27
2022-11-05T21:24:49.088Z,99509.69
2022-11-05T21:27:19.828Z,99511.05
2022-11-05T21:29:50.867Z,99512.89
2022-11-05T21:32:21.551Z,99512.02
2022-11-05T21:34:52.472Z,99507.02
2022-11-05T21:37:23.184Z,99513.73
2022-11-05T21:39:54.549Z,99513.56
2022-11-05T21:42:25.230Z,99515.70
2022-11-05T21:45:00.248Z,99512.77
2022-11-05T21:47:34.003Z,99511.42
2022-11-05T21:50:05.175Z,99512.96
2022-11-05T21:52:53.706Z,99512.66
2022-11-05T21:55:42.246Z,99513.21
2022-11-05T21:58:33.964Z,99516.02
2022-11-05T22:01:05.213Z,99504.52
2022-11-05T22:03:35.951Z,99510.65
2022-11-05T22:06:07.231Z,99508.59
2022-11-05T22:08:38.101Z,99506.82
2022-11-05T22:11:08.882Z,99511.48
2022-11-05T22:13:39.725Z,99519.41
2022-11-05T22:16:11.531Z,99522.02
2022-11-05T22:18:42.832Z,99524.90
2022-11-05T22:21:19.169Z,99524.95
2022-11-05T22:23:49.937Z,99520.87
2022-11-05T22:26:21.292Z,99521.85
2022-11-05T22:28:53.851Z,99522.66
2022-11-05T22:31:30.517Z,99524.13
2022-11-05T22:34:04.727Z,99521.32
2022-11-05T22:36:36.079Z,99521.15
2022-11-05T22:39:07.387Z,99524.88
2022-11-05T22:41:38.112Z,99529.88
2022-11-05T22:44:10.487Z,99527.77
2022-11-05T22:46:44.135Z,99532.88
2022-11-05T22:49:13.198Z,99538.91
2022-11-05T22:51:43.855Z,99542.14
2022-11-05T22:54:15.143Z,99537.54
2022-11-05T22:56:46.213Z,99535.13
2022-11-05T22:59:17.671Z,99535.92
2022-11-05T23:01:49.474Z,99533.39
2022-11-05T23:04:20.207Z,99534.29
2022-11-05T23:07:08.400Z,99537.15
2022-11-05T23:09:57.313Z,99546.56
2022-11-05T23:12:32.623Z,99542.75
2022-11-05T23:15:06.692Z,99541.05
2022-11-05T23:18:03.338Z,99537.75
2022-11-05T23:20:51.779Z,99537.98
2022-11-05T23:23:40.368Z,99538.56
2022-11-05T23:26:24.874Z,99538.25
2022-11-05T23:28:55.511Z,99537.89
2022-11-05T23:31:43.753Z,99539.21
2022-11-05T23:34:14.383Z,99535.24
2022-11-05T23:37:03.030Z,99536.77
2022-11-05T23:39:37.008Z,99534.18
2022-11-05T23:42:29.678Z,99536.07
2022-11-05T23:45:18.224Z,99536.33
2022-11-05T23:48:06.666Z,99539.63
2022-11-05T23:50:40.051Z,99538.13
2022-11-05T23:53:11.775Z,99539.36
2022-11-05T23:55:42.673Z,99537.15
2022-11-05T23:58:13.974Z,99538.55
